Time;durP1;ratioP1;P1;durP2;ratioP2;P2;SDS_P1;SDS_P2;PMS_P1;PMS_P2;Temp;Humidity;BMP_temperature;BMP_pressure;BME280_temperature;BME280_humidity;BME280_pressure;Samples;Min_cycle;Max_cycle;Signal;HPM_P1;HPM_P2
2022/09/15 00:01:31;;;;;;;1.77;1.67;;;19.00;99.90;;;;;;5070341;28;20216;-92
2022/09/15 00:03:59;;;;;;;1.50;1.40;;;19.00;99.90;;;;;;5070256;28;20209;-94
2022/09/15 00:06:27;;;;;;;1.55;1.45;;;18.90;99.90;;;;;;5074562;28;20212;-94
2022/09/15 00:08:57;;;;;;;2.58;1.80;;;18.90;99.90;;;;;;5075665;28;20233;-93
2022/09/15 00:11:27;;;;;;;2.38;1.65;;;18.90;99.90;;;;;;5076299;28;20207;-93
2022/09/15 00:13:57;;;;;;;1.33;1.30;;;19.00;99.90;;;;;;5076086;28;20236;-92
2022/09/15 00:16:29;;;;;;;1.80;1.70;;;19.00;99.90;;;;;;5075796;28;20280;-92
2022/09/15 00:18:59;;;;;;;1.85;1.75;;;19.00;99.90;;;;;;5075870;28;20227;-93
2022/09/15 00:21:29;;;;;;;1.45;1.35;;;19.00;99.90;;;;;;5075826;28;20215;-93
2022/09/15 00:23:59;;;;;;;1.50;1.40;;;19.00;99.90;;;;;;5075722;28;20211;-93
2022/09/15 00:26:29;;;;;;;1.80;1.40;;;19.00;99.90;;;;;;5077181;28;20201;-93
2022/09/15 00:28:59;;;;;;;1.48;1.38;;;19.00;99.90;;;;;;5078059;28;20307;-91
2022/09/15 00:31:30;;;;;;;1.55;1.45;;;19.00;99.90;;;;;;5077775;28;20227;-92
2022/09/15 00:34:01;;;;;;;1.92;1.83;;;18.90;99.90;;;;;;5076665;28;20212;-92
2022/09/15 00:36:30;;;;;;;1.70;1.60;;;19.00;99.90;;;;;;5075174;28;20306;-90
2022/09/15 00:38:58;;;;;;;2.08;1.70;;;18.90;99.90;;;;;;5075194;28;20225;-93
2022/09/15 00:41:27;;;;;;;2.25;2.15;;;18.90;99.90;;;;;;5075216;28;20205;-93
2022/09/15 00:43:57;;;;;;;2.25;1.73;;;19.00;99.90;;;;;;5075299;28;20211;-92
2022/09/15 00:46:30;;;;;;;1.98;1.60;;;19.00;99.90;;;;;;5075404;28;20215;-92
2022/09/15 00:49:02;;;;;;;2.50;2.10;;;19.10;99.90;;;;;;5075294;28;20225;-92
2022/09/15 00:51:37;;;;;;;7.43;1.75;;;19.10;99.90;;;;;;5075874;28;20201;-93
2022/09/15 00:54:09;;;;;;;2.00;1.77;;;19.00;99.90;;;;;;5075898;28;20295;-93
2022/09/15 00:56:40;;;;;;;1.65;1.55;;;19.10;99.90;;;;;;5075481;28;20228;-92
2022/09/15 00:59:12;;;;;;;2.13;1.98;;;19.10;99.90;;;;;;5088619;28;20308;-93
2022/09/15 01:01:44;;;;;;;1.52;1.42;;;19.10;99.90;;;;;;5088628;28;20201;-93
2022/09/15 01:04:14;;;;;;;1.90;1.70;;;19.10;99.90;;;;;;5087253;28;20212;-94
2022/09/15 01:06:48;;;;;;;1.80;1.70;;;19.10;99.90;;;;;;5082627;28;20205;-92
2022/09/15 01:09:19;;;;;;;2.08;1.42;;;19.10;99.90;;;;;;5075561;28;20232;-92
2022/09/15 01:11:47;;;;;;;1.52;1.40;;;19.10;99.90;;;;;;5075299;28;20205;-92
2022/09/15 01:14:16;;;;;;;1.65;1.52;;;19.10;99.90;;;;;;5074928;28;20205;-93
2022/09/15 01:16:56;;;;;;;2.65;1.70;;;19.10;99.90;;;;;;5074078;28;20231;-92
2022/09/15 01:20:02;;;;;;;1.33;1.23;;;19.20;99.90;;;;;;5074557;28;20235;-92
2022/09/15 01:22:36;;;;;;;3.47;1.75;;;19.10;99.90;;;;;;5069375;28;20205;-92
2022/09/15 01:25:10;;;;;;;1.27;1.17;;;19.20;99.90;;;;;;5074675;28;20212;-92
2022/09/15 01:28:17;;;;;;;1.42;1.33;;;19.20;99.90;;;;;;5074541;28;20212;-92
2022/09/15 01:30:56;;;;;;;1.60;1.50;;;19.20;99.90;;;;;;5064091;28;20232;-92
2022/09/15 01:33:34;;;;;;;1.83;1.73;;;19.30;99.90;;;;;;5074650;28;20227;-92
2022/09/15 01:36:11;;;;;;;1.70;1.60;;;19.30;99.90;;;;;;5074202;28;20205;-92
2022/09/15 01:38:47;;;;;;;2.40;1.90;;;19.20;99.90;;;;;;5074114;28;20217;-91
2022/09/15 01:41:18;;;;;;;4.03;2.05;;;19.30;99.90;;;;;;5073637;28;20203;-91
2022/09/15 01:43:51;;;;;;;1.48;1.38;;;19.20;99.90;;;;;;5073689;28;20212;-91
2022/09/15 01:46:25;;;;;;;3.40;1.55;;;19.30;99.90;;;;;;5073829;28;20222;-91
2022/09/15 01:48:57;;;;;;;1.60;1.50;;;19.30;99.90;;;;;;5073704;28;20240;-90
2022/09/15 01:51:27;;;;;;;1.77;1.20;;;19.30;99.90;;;;;;5074063;28;20216;-91
2022/09/15 01:53:57;;;;;;;8.98;2.33;;;19.40;99.90;;;;;;5073776;28;20212;-90
2022/09/15 01:56:25;;;;;;;2.33;1.40;;;19.50;99.90;;;;;;5075281;28;20208;-91
2022/09/15 01:58:54;;;;;;;1.40;1.30;;;19.50;99.90;;;;;;5074513;28;20240;-90
2022/09/15 02:01:30;;;;;;;1.73;1.30;;;19.50;99.90;;;;;;5073827;28;20212;-90
2022/09/15 02:04:04;;;;;;;1.92;1.48;;;19.50;99.90;;;;;;5073947;28;20309;-89
2022/09/15 02:06:39;;;;;;;1.88;1.77;;;19.40;99.90;;;;;;5073235;28;20232;-90
2022/09/15 02:09:13;;;;;;;1.77;1.55;;;19.40;99.90;;;;;;5073031;28;20224;-88
2022/09/15 02:11:51;;;;;;;1.65;1.55;;;19.30;99.90;;;;;;5073598;28;20216;-90
2022/09/15 02:14:27;;;;;;;1.60;1.50;;;19.30;99.90;;;;;;5073372;28;20232;-88
2022/09/15 02:16:57;;;;;;;1.98;1.80;;;19.30;99.90;;;;;;5073338;28;20217;-90
2022/09/15 02:19:33;;;;;;;1.92;1.67;;;19.20;99.90;;;;;;5073105;28;20225;-89
2022/09/15 02:22:06;;;;;;;9.48;2.10;;;19.20;99.90;;;;;;5073468;28;20212;-90
2022/09/15 02:24:39;;;;;;;1.63;1.52;;;19.10;99.90;;;;;;5073296;28;20231;-90
2022/09/15 02:27:11;;;;;;;2.63;1.77;;;19.10;99.90;;;;;;5072689;28;20198;-90
2022/09/15 02:29:42;;;;;;;1.30;1.20;;;19.10;99.90;;;;;;5072766;28;20235;-90
2022/09/15 02:32:15;;;;;;;1.40;1.30;;;19.10;99.90;;;;;;5073550;28;20212;-90
2022/09/15 02:34:47;;;;;;;1.88;1.20;;;19.10;99.90;;;;;;5073016;28;20212;-88
2022/09/15 02:37:16;;;;;;;2.03;1.58;;;19.10;99.90;;;;;;5072982;28;20232;-90
2022/09/15 02:39:49;;;;;;;1.88;1.60;;;19.10;99.90;;;;;;5072580;28;20243;-91
2022/09/15 02:42:24;;;;;;;1.73;1.60;;;19.10;99.90;;;;;;5072808;28;20268;-89
2022/09/15 02:44:52;;;;;;;1.63;1.52;;;19.10;99.90;;;;;;5073051;28;20201;-90
2022/09/15 02:47:22;;;;;;;1.40;1.30;;;19.20;99.90;;;;;;5072944;28;20220;-90
2022/09/15 02:49:51;;;;;;;2.58;1.42;;;19.20;99.90;;;;;;5072653;28;20221;-89
2022/09/15 02:52:19;;;;;;;1.35;1.25;;;19.30;99.90;;;;;;5072163;28;20204;-90
2022/09/15 02:54:49;;;;;;;1.50;1.40;;;19.30;99.90;;;;;;5072543;28;20216;-89
2022/09/15 02:57:17;;;;;;;1.33;1.25;;;19.30;99.90;;;;;;5072658;28;20220;-90
2022/09/15 03:02:33;;;;;;;1.20;1.10;;;19.20;99.90;;;;;;5072828;28;20201;-89
2022/09/15 03:05:01;;;;;;;1.38;1.27;;;19.20;99.90;;;;;;5072742;28;20209;-88
2022/09/15 03:07:30;;;;;;;1.75;1.42;;;19.30;99.90;;;;;;5072498;28;20197;-89
2022/09/15 03:09:59;;;;;;;3.10;1.85;;;19.20;99.90;;;;;;5072303;28;20227;-88
2022/09/15 03:12:27;;;;;;;2.65;1.60;;;19.20;99.90;;;;;;5072600;28;20205;-89
2022/09/15 03:14:56;;;;;;;1.75;1.63;;;19.10;99.90;;;;;;5072561;28;20211;-89
2022/09/15 03:17:24;;;;;;;1.27;1.20;;;19.10;99.90;;;;;;5072540;28;20225;-89
2022/09/15 03:19:54;;;;;;;1.52;1.42;;;19.10;99.90;;;;;;5072448;28;20240;-90
2022/09/15 03:22:23;;;;;;;1.67;1.58;;;19.10;99.90;;;;;;5072440;28;20212;-89
2022/09/15 03:24:51;;;;;;;1.35;1.25;;;19.10;99.90;;;;;;5072307;28;20211;-88
2022/09/15 03:27:20;;;;;;;2.28;1.27;;;19.10;99.90;;;;;;5072163;28;20204;-89
2022/09/15 03:29:48;;;;;;;3.08;1.55;;;19.10;99.90;;;;;;5071598;28;20232;-88
2022/09/15 03:32:16;;;;;;;2.55;1.42;;;19.10;99.90;;;;;;5072268;28;20205;-88
2022/09/15 03:34:44;;;;;;;1.60;1.50;;;19.10;99.90;;;;;;5072458;28;20205;-88
2022/09/15 03:37:15;;;;;;;1.42;1.10;;;19.10;99.90;;;;;;5072531;28;20209;-88
2022/09/15 03:39:43;;;;;;;2.38;1.80;;;19.10;99.90;;;;;;5074656;28;20233;-89
2022/09/15 03:42:13;;;;;;;1.67;1.48;;;19.10;99.90;;;;;;5076596;28;20201;-88
2022/09/15 03:44:41;;;;;;;2.13;1.65;;;19.10;99.90;;;;;;5076101;28;20212;-88
2022/09/15 03:47:09;;;;;;;2.10;1.52;;;19.10;99.90;;;;;;5076606;28;20201;-88
2022/09/15 03:49:37;;;;;;;2.15;1.90;;;19.00;99.90;;;;;;5075980;28;20224;-88
2022/09/15 03:52:05;;;;;;;1.67;1.58;;;19.00;99.90;;;;;;5076137;28;20216;-88
2022/09/15 03:54:35;;;;;;;3.05;1.63;;;19.00;99.90;;;;;;5076129;28;20227;-87
2022/09/15 03:57:04;;;;;;;1.90;1.80;;;18.90;99.90;;;;;;5076042;28;20209;-88
2022/09/15 03:59:32;;;;;;;2.40;1.67;;;18.90;99.90;;;;;;5075819;28;20237;-88
2022/09/15 04:02:00;;;;;;;5.25;1.58;;;18.80;99.90;;;;;;5076397;28;20295;-86
2022/09/15 04:04:28;;;;;;;1.67;1.42;;;18.80;99.90;;;;;;5075833;28;20213;-87
2022/09/15 04:06:57;;;;;;;1.92;1.40;;;18.80;99.90;;;;;;5075659;28;20212;-88
2022/09/15 04:09:25;;;;;;;3.28;2.35;;;18.80;99.90;;;;;;5075484;28;20221;-88
2022/09/15 04:11:55;;;;;;;10.52;1.95;;;18.80;99.90;;;;;;5075358;28;20201;-88
2022/09/15 04:14:23;;;;;;;5.93;2.08;;;18.80;99.90;;;;;;5075876;28;20215;-88
2022/09/15 04:16:52;;;;;;;2.97;1.95;;;18.70;99.90;;;;;;5075451;28;20201;-88
2022/09/15 04:19:20;;;;;;;2.67;1.80;;;18.80;99.90;;;;;;5075156;28;20241;-87
2022/09/15 04:21:48;;;;;;;2.47;1.70;;;18.70;99.90;;;;;;5075349;28;20201;-87
2022/09/15 04:24:17;;;;;;;1.95;1.65;;;18.70;99.90;;;;;;5075097;28;20211;-87
2022/09/15 04:26:45;;;;;;;2.22;1.70;;;18.70;99.90;;;;;;5075507;28;20368;-87
2022/09/15 04:29:16;;;;;;;1.85;1.75;;;18.70;99.90;;;;;;5075278;28;20237;-88
2022/09/15 04:31:45;;;;;;;1.70;1.60;;;18.70;99.90;;;;;;5075563;28;20211;-87
2022/09/15 04:34:14;;;;;;;2.03;1.83;;;18.70;99.90;;;;;;5075236;28;20205;-87
2022/09/15 04:36:42;;;;;;;2.05;1.85;;;18.70;99.90;;;;;;5074765;28;20225;-86
2022/09/15 04:39:11;;;;;;;1.50;1.40;;;18.70;99.90;;;;;;5074303;28;20235;-88
2022/09/15 04:41:39;;;;;;;2.10;1.77;;;18.70;99.90;;;;;;5075336;28;20212;-87
2022/09/15 04:44:08;;;;;;;3.42;2.00;;;18.70;99.90;;;;;;5075508;28;20201;-87
2022/09/15 04:46:37;;;;;;;1.60;1.50;;;18.70;99.90;;;;;;5075077;28;20212;-87
2022/09/15 04:49:06;;;;;;;1.88;1.77;;;18.70;99.90;;;;;;5074815;28;20221;-87
2022/09/15 04:51:34;;;;;;;2.17;1.40;;;18.70;99.90;;;;;;5074458;28;20209;-87
2022/09/15 04:54:02;;;;;;;1.83;1.73;;;18.80;99.90;;;;;;5075368;28;20216;-87
2022/09/15 04:56:30;;;;;;;1.98;1.77;;;18.80;99.90;;;;;;5075251;28;20204;-88
2022/09/15 04:59:00;;;;;;;1.65;1.55;;;18.80;99.90;;;;;;5074523;28;20236;-87
2022/09/15 05:01:34;;;;;;;1.55;1.45;;;18.90;99.90;;;;;;5075068;28;20205;-88
2022/09/15 05:04:05;;;;;;;3.05;2.15;;;18.80;99.90;;;;;;5074883;28;20227;-88
2022/09/15 05:06:34;;;;;;;2.03;1.90;;;18.90;99.90;;;;;;5074609;28;20216;-88
2022/09/15 05:09:04;;;;;;;1.90;1.50;;;18.90;99.90;;;;;;5074415;28;20228;-88
2022/09/15 05:11:37;;;;;;;1.55;1.38;;;18.90;99.90;;;;;;5074885;28;20209;-88
2022/09/15 05:14:06;;;;;;;2.65;1.45;;;18.90;99.90;;;;;;5074792;28;20212;-88
2022/09/15 05:16:35;;;;;;;2.05;1.73;;;18.90;99.90;;;;;;5074340;28;20208;-89
2022/09/15 05:19:05;;;;;;;9.98;1.63;;;18.90;99.90;;;;;;5074109;28;20307;-89
2022/09/15 05:21:33;;;;;;;1.52;1.42;;;18.90;99.90;;;;;;5074653;28;20204;-88
2022/09/15 05:24:02;;;;;;;1.88;1.77;;;18.90;99.90;;;;;;5074413;28;20205;-88
2022/09/15 05:26:31;;;;;;;3.13;1.58;;;19.00;99.90;;;;;;5075646;28;20208;-87
2022/09/15 05:28:59;;;;;;;1.80;1.70;;;19.00;99.90;;;;;;5074026;28;20237;-88
2022/09/15 05:31:30;;;;;;;1.92;1.83;;;19.00;99.90;;;;;;5074032;28;20235;-89
2022/09/15 05:34:00;;;;;;;1.50;1.40;;;19.00;99.90;;;;;;5074092;28;20239;-88
2022/09/15 05:36:31;;;;;;;1.50;1.40;;;19.10;99.90;;;;;;5074341;28;20211;-89
2022/09/15 05:39:00;;;;;;;2.22;1.85;;;19.20;99.90;;;;;;5073985;28;20221;-88
2022/09/15 05:41:29;;;;;;;3.60;1.60;;;19.20;99.90;;;;;;5073868;28;20207;-88
2022/09/15 05:43:58;;;;;;;5.78;2.83;;;19.30;99.90;;;;;;5073612;28;20205;-88
2022/09/15 05:46:27;;;;;;;4.50;1.90;;;19.30;99.90;;;;;;5073993;28;20216;-88
2022/09/15 05:48:58;;;;;;;1.70;1.60;;;19.40;99.90;;;;;;5073764;28;20225;-88
2022/09/15 05:51:26;;;;;;;1.63;1.52;;;19.40;99.90;;;;;;5073764;28;20224;-88
2022/09/15 05:53:56;;;;;;;1.33;1.13;;;19.50;99.90;;;;;;5073864;28;20205;-89
2022/09/15 05:56:24;;;;;;;2.53;2.33;;;19.50;99.90;;;;;;5074011;28;20201;-88
2022/09/15 05:58:52;;;;;;;3.03;1.95;;;19.50;99.90;;;;;;5073120;28;20225;-88
2022/09/15 06:01:23;;;;;;;1.58;1.48;;;19.50;99.90;;;;;;5073509;28;20216;-88
2022/09/15 06:03:52;;;;;;;1.83;1.33;;;19.60;99.90;;;;;;5073840;28;20278;-88
2022/09/15 06:06:21;;;;;;;1.27;1.23;;;19.60;99.90;;;;;;5073444;28;20205;-88
2022/09/15 06:08:58;;;;;;;3.45;1.52;;;19.70;99.90;;;;;;5073045;28;20229;-89
2022/09/15 06:11:29;;;;;;;1.50;1.40;;;19.70;99.90;;;;;;5073508;28;20208;-88
2022/09/15 06:14:00;;;;;;;2.33;1.52;;;19.80;99.90;;;;;;5073330;28;20205;-88
2022/09/15 06:16:32;;;;;;;1.42;1.40;;;19.80;99.90;;;;;;5073584;28;20209;-88
2022/09/15 06:19:01;;;;;;;1.83;1.73;;;19.90;99.90;;;;;;5072816;28;20236;-88
2022/09/15 06:21:31;;;;;;;1.25;1.15;;;19.90;99.90;;;;;;5073440;28;20291;-87
2022/09/15 06:24:02;;;;;;;4.13;1.63;;;20.00;99.90;;;;;;5073304;28;20209;-88
2022/09/15 06:26:30;;;;;;;4.30;1.52;;;20.00;99.90;;;;;;5073031;28;20217;-88
2022/09/15 06:29:00;;;;;;;1.50;1.40;;;20.10;99.90;;;;;;5073316;28;20236;-87
2022/09/15 06:31:30;;;;;;;1.55;1.33;;;20.10;99.90;;;;;;5073100;28;20213;-88
2022/09/15 06:33:59;;;;;;;1.75;1.58;;;20.10;99.90;;;;;;5072778;28;20201;-87
2022/09/15 06:36:29;;;;;;;1.92;1.80;;;20.20;99.90;;;;;;5072896;28;20265;-87
2022/09/15 06:38:58;;;;;;;3.22;1.90;;;20.30;99.90;;;;;;5073259;28;20232;-87
2022/09/15 06:41:29;;;;;;;1.27;1.15;;;20.30;99.90;;;;;;5073347;28;20204;-87
2022/09/15 06:44:17;;;;;;;1.60;1.50;;;20.40;99.90;;;;;;5073340;28;20213;-87
2022/09/15 06:46:45;;;;;;;2.72;1.67;;;20.50;99.90;;;;;;5072692;28;20204;-87
2022/09/15 06:49:14;;;;;;;1.50;1.40;;;20.50;99.90;;;;;;5072339;28;20220;-88
2022/09/15 06:51:42;;;;;;;2.00;1.65;;;20.50;99.90;;;;;;5072966;28;20208;-87
2022/09/15 06:54:10;;;;;;;2.25;1.55;;;20.50;99.90;;;;;;5072971;28;20212;-87
2022/09/15 06:56:40;;;;;;;1.67;1.58;;;20.40;99.90;;;;;;5072933;28;20205;-87
2022/09/15 06:59:11;;;;;;;1.73;1.58;;;20.50;99.90;;;;;;5072747;28;20232;-88
2022/09/15 07:01:40;;;;;;;1.58;1.10;;;20.50;99.90;;;;;;5072464;28;20201;-86
2022/09/15 07:04:09;;;;;;;1.85;1.73;;;20.50;99.90;;;;;;5072349;28;20205;-87
2022/09/15 07:06:39;;;;;;;1.83;1.73;;;20.50;99.90;;;;;;5072443;28;20208;-87
2022/09/15 07:09:08;;;;;;;1.35;1.25;;;20.60;99.90;;;;;;5072463;28;20239;-88
2022/09/15 07:11:36;;;;;;;1.48;1.38;;;20.70;99.90;;;;;;5072911;28;20220;-87
2022/09/15 07:14:06;;;;;;;1.30;1.20;;;20.70;99.90;;;;;;5071968;28;20208;-87
2022/09/15 07:16:34;;;;;;;1.67;1.45;;;20.80;99.90;;;;;;5072404;28;20224;-86
2022/09/15 07:19:04;;;;;;;1.40;1.30;;;20.90;99.90;;;;;;5072100;28;20243;-87
2022/09/15 07:21:34;;;;;;;1.38;1.27;;;21.00;99.90;;;;;;5072029;28;20229;-86
2022/09/15 07:24:03;;;;;;;1.00;1.00;;;21.10;99.90;;;;;;5073024;28;20214;-86
2022/09/15 07:26:34;;;;;;;1.38;1.27;;;21.20;99.90;;;;;;5072466;28;20209;-86
2022/09/15 07:29:06;;;;;;;0.98;0.98;;;21.20;99.90;;;;;;5071964;28;20236;-86
2022/09/15 07:31:36;;;;;;;1.50;1.35;;;21.30;99.90;;;;;;5072379;28;20287;-88
2022/09/15 07:34:05;;;;;;;1.30;1.20;;;21.30;99.90;;;;;;5072134;28;20212;-88
2022/09/15 07:36:34;;;;;;;1.23;1.13;;;21.30;99.90;;;;;;5072151;28;20216;-86
2022/09/15 07:39:04;;;;;;;1.70;1.25;;;21.30;99.90;;;;;;5072424;28;20228;-86
2022/09/15 07:41:32;;;;;;;1.13;1.08;;;21.40;99.90;;;;;;5072081;28;20225;-86
2022/09/15 07:44:01;;;;;;;1.90;1.50;;;21.40;99.90;;;;;;5072052;28;20209;-86
2022/09/15 07:46:32;;;;;;;1.23;1.10;;;21.40;99.90;;;;;;5072295;28;20208;-86
2022/09/15 07:49:01;;;;;;;1.20;1.20;;;21.40;99.90;;;;;;5071858;28;20225;-88
2022/09/15 07:51:30;;;;;;;3.78;1.70;;;21.40;99.90;;;;;;5072439;28;20258;-87
2022/09/15 07:53:59;;;;;;;1.60;1.50;;;21.40;99.90;;;;;;5072279;28;20208;-88
2022/09/15 07:56:27;;;;;;;1.42;1.10;;;21.40;99.90;;;;;;5072096;28;20205;-86
2022/09/15 07:58:58;;;;;;;1.13;1.08;;;21.40;99.90;;;;;;5071750;28;20232;-87
2022/09/15 08:01:26;;;;;;;1.15;1.05;;;21.30;99.90;;;;;;5071865;28;20228;-85
2022/09/15 08:03:56;;;;;;;1.73;1.30;;;21.30;99.90;;;;;;5072287;28;20208;-87
2022/09/15 08:06:26;;;;;;;1.98;1.70;;;21.30;99.90;;;;;;5072071;28;20205;-87
2022/09/15 08:08:55;;;;;;;1.60;1.50;;;21.30;99.90;;;;;;5071620;28;20243;-87
2022/09/15 08:11:28;;;;;;;17.98;1.83;;;21.30;99.90;;;;;;5072193;28;20288;-86
2022/09/15 08:14:00;;;;;;;1.48;1.38;;;21.30;99.90;;;;;;5072235;28;20292;-87
2022/09/15 08:16:28;;;;;;;1.77;1.33;;;21.30;99.90;;;;;;5072339;28;20205;-86
2022/09/15 08:18:58;;;;;;;2.40;1.13;;;21.40;99.90;;;;;;5071946;28;20225;-87
2022/09/15 08:21:27;;;;;;;1.65;1.55;;;21.40;99.90;;;;;;5071613;28;20225;-87
2022/09/15 08:23:57;;;;;;;1.60;1.50;;;21.50;99.90;;;;;;5071500;28;20209;-87
2022/09/15 08:26:26;;;;;;;1.33;1.23;;;21.50;99.90;;;;;;5073648;28;20201;-87
2022/09/15 08:28:55;;;;;;;3.03;1.70;;;21.50;99.90;;;;;;5075102;28;20237;-87
2022/09/15 08:31:23;;;;;;;1.40;1.30;;;21.50;99.90;;;;;;5075433;28;20243;-86
2022/09/15 08:33:53;;;;;;;1.55;1.27;;;21.50;99.90;;;;;;5075280;28;20217;-87
2022/09/15 08:36:26;;;;;;;1.20;1.10;;;21.50;99.90;;;;;;5075297;28;20205;-86
2022/09/15 08:38:55;;;;;;;2.63;1.70;;;21.50;99.90;;;;;;5075330;28;20229;-86
2022/09/15 08:41:27;;;;;;;1.00;1.00;;;21.50;99.90;;;;;;5075069;28;20226;-86
2022/09/15 08:43:59;;;;;;;1.60;1.50;;;21.40;99.90;;;;;;5075275;28;20211;-86
2022/09/15 08:46:32;;;;;;;1.88;1.40;;;21.50;99.90;;;;;;5075234;28;20229;-87
2022/09/15 08:49:06;;;;;;;1.17;1.15;;;21.50;99.90;;;;;;5074247;28;20225;-86
2022/09/15 08:51:43;;;;;;;1.40;1.25;;;21.50;99.90;;;;;;5075336;28;20209;-86
2022/09/15 08:54:16;;;;;;;1.80;1.70;;;21.50;99.90;;;;;;5075299;28;20209;-86
2022/09/15 08:56:44;;;;;;;1.30;1.20;;;21.50;99.90;;;;;;5075507;28;20208;-86
2022/09/15 08:59:15;;;;;;;1.08;1.08;;;21.60;99.90;;;;;;5074634;28;20225;-86
2022/09/15 09:02:04;;;;;;;1.60;1.25;;;21.70;99.90;;;;;;5074969;28;20227;-88
2022/09/15 09:04:53;;;;;;;1.48;1.38;;;21.80;99.90;;;;;;5075175;28;20208;-86
2022/09/15 09:07:43;;;;;;;1.50;1.40;;;21.90;99.90;;;;;;5074690;28;20213;-86
2022/09/15 09:10:16;;;;;;;1.38;1.27;;;21.80;99.90;;;;;;5074585;28;20217;-87
2022/09/15 09:13:03;;;;;;;1.90;1.67;;;21.80;99.90;;;;;;5074857;28;20213;-87
2022/09/15 09:15:43;;;;;;;1.38;1.30;;;21.80;99.90;;;;;;5074558;28;20223;-86
2022/09/15 09:18:32;;;;;;;1.25;1.17;;;21.80;99.90;;;;;;5074371;28;20225;-86
2022/09/15 09:21:10;;;;;;;1.85;1.65;;;21.80;99.90;;;;;;5074174;28;20244;-87
2022/09/15 09:23:46;;;;;;;1.52;1.42;;;21.90;99.90;;;;;;5074446;28;20212;-88
2022/09/15 09:26:15;;;;;;;1.98;1.48;;;21.90;99.90;;;;;;5074474;28;20204;-86
2022/09/15 09:28:48;;;;;;;1.02;1.00;;;21.90;99.90;;;;;;5074285;28;20241;-87
2022/09/15 09:31:20;;;;;;;1.75;1.52;;;21.90;99.90;;;;;;5074051;28;20196;-87
2022/09/15 09:33:53;;;;;;;2.05;1.38;;;21.80;99.90;;;;;;5074294;28;20251;-86
2022/09/15 09:36:21;;;;;;;1.13;1.13;;;21.80;99.90;;;;;;5073559;28;20213;-86
2022/09/15 09:38:51;;;;;;;1.13;1.13;;;21.70;99.90;;;;;;5073678;28;20240;-87
2022/09/15 09:41:26;;;;;;;1.33;1.23;;;21.60;99.90;;;;;;5073883;28;20227;-86
2022/09/15 09:43:56;;;;;;;2.13;1.75;;;21.40;99.90;;;;;;5074766;28;20212;-86
2022/09/15 09:46:24;;;;;;;1.13;1.08;;;21.30;99.90;;;;;;5074487;28;20209;-86
2022/09/15 09:48:55;;;;;;;2.35;1.02;;;21.20;99.90;;;;;;5072931;28;20225;-86
2022/09/15 09:51:35;;;;;;;1.05;1.05;;;21.10;99.90;;;;;;5073631;28;20215;-86
2022/09/15 09:54:09;;;;;;;1.40;1.30;;;20.90;99.90;;;;;;5073843;28;20211;-86
2022/09/15 09:56:38;;;;;;;2.08;1.40;;;20.90;99.90;;;;;;5074030;28;20208;-86
2022/09/15 09:59:28;;;;;;;1.05;1.05;;;20.70;99.90;;;;;;5073447;28;20221;-86
2022/09/15 10:02:12;;;;;;;1.35;1.25;;;20.60;99.90;;;;;;5073676;28;20225;-86
2022/09/15 10:04:42;;;;;;;1.50;1.40;;;20.50;99.90;;;;;;5073418;28;20205;-87
2022/09/15 10:07:12;;;;;;;1.38;1.20;;;20.40;99.90;;;;;;5073698;28;20209;-87
2022/09/15 10:09:52;;;;;;;1.42;1.33;;;20.20;99.90;;;;;;5073194;28;20224;-87
2022/09/15 10:12:25;;;;;;;1.73;1.50;;;20.20;99.90;;;;;;5073458;28;20201;-88
2022/09/15 10:14:55;;;;;;;2.08;1.60;;;20.00;99.90;;;;;;5073353;28;20201;-87
2022/09/15 10:17:27;;;;;;;1.40;1.35;;;19.80;99.90;;;;;;5073336;28;20217;-88
2022/09/15 10:19:56;;;;;;;1.48;1.38;;;19.70;99.90;;;;;;5073091;28;20221;-85
2022/09/15 10:22:28;;;;;;;2.33;1.67;;;19.60;99.90;;;;;;5073146;28;20228;-88
2022/09/15 10:24:59;;;;;;;1.85;1.65;;;19.50;99.90;;;;;;5073138;28;20205;-87
2022/09/15 10:27:30;;;;;;;1.60;1.50;;;19.50;99.90;;;;;;5073332;28;20205;-86
2022/09/15 10:30:11;;;;;;;1.55;1.45;;;19.50;99.90;;;;;;5072834;28;20330;-86
2022/09/15 10:32:40;;;;;;;1.88;1.65;;;19.50;99.90;;;;;;5073042;28;20196;-86
2022/09/15 10:35:12;;;;;;;1.48;1.38;;;19.50;99.90;;;;;;5073169;28;20212;-86
2022/09/15 10:38:03;;;;;;;1.10;1.10;;;19.40;99.90;;;;;;5073058;28;20208;-87
2022/09/15 10:40:38;;;;;;;2.55;1.50;;;19.40;99.90;;;;;;5073094;28;20205;-87
2022/09/15 10:43:24;;;;;;;1.52;1.33;;;19.40;99.90;;;;;;5072976;28;20232;-87
2022/09/15 10:46:02;;;;;;;0.80;0.80;;;19.40;99.90;;;;;;5072951;28;20201;-87
2022/09/15 10:48:40;;;;;;;1.95;1.45;;;19.30;99.90;;;;;;5071480;28;20232;-87
2022/09/15 10:51:19;;;;;;;2.05;1.30;;;19.30;99.90;;;;;;5073060;28;20208;-88
2022/09/15 10:54:01;;;;;;;1.52;1.42;;;19.30;99.90;;;;;;5072824;28;20201;-87
2022/09/15 10:56:36;;;;;;;1.33;1.23;;;19.40;99.90;;;;;;5072628;28;20204;-87
2022/09/15 10:59:26;;;;;;;1.10;1.10;;;19.50;99.90;;;;;;5072643;28;20235;-88
2022/09/15 11:02:23;;;;;;;1.33;1.23;;;19.40;99.90;;;;;;5072843;28;20225;-87
2022/09/15 11:05:10;;;;;;;1.25;1.20;;;19.50;99.90;;;;;;5072672;28;20211;-87
2022/09/15 11:07:45;;;;;;;0.93;0.93;;;19.50;99.90;;;;;;5072600;28;20233;-87
2022/09/15 11:10:22;;;;;;;1.90;1.23;;;19.40;99.90;;;;;;5072237;28;20208;-86
2022/09/15 11:13:00;;;;;;;1.30;1.13;;;19.40;99.90;;;;;;5072441;28;20231;-86
2022/09/15 11:15:46;;;;;;;1.30;1.30;;;19.30;99.90;;;;;;5072611;28;20205;-86
2022/09/15 11:18:30;;;;;;;1.38;1.10;;;19.30;99.90;;;;;;5072619;28;20220;-87
2022/09/15 11:21:20;;;;;;;1.50;1.40;;;19.30;99.90;;;;;;5072704;28;20209;-87
2022/09/15 11:23:54;;;;;;;2.30;1.77;;;19.40;99.90;;;;;;5072430;28;20197;-87
2022/09/15 11:26:29;;;;;;;1.17;1.08;;;19.40;99.90;;;;;;5072361;28;20208;-87
2022/09/15 11:29:05;;;;;;;1.38;1.27;;;19.40;99.90;;;;;;5072351;28;20247;-86
2022/09/15 11:31:38;;;;;;;1.15;1.10;;;19.40;99.90;;;;;;5072640;28;20208;-88
2022/09/15 11:34:15;;;;;;;1.30;1.20;;;19.30;99.90;;;;;;5072501;28;20228;-86
2022/09/15 11:36:49;;;;;;;1.23;1.13;;;19.30;99.90;;;;;;5072340;28;20208;-87
2022/09/15 11:39:22;;;;;;;1.30;1.20;;;19.20;99.90;;;;;;5071998;28;20229;-87
2022/09/15 11:41:55;;;;;;;1.13;1.02;;;19.20;99.90;;;;;;5072300;28;20220;-87
2022/09/15 11:44:30;;;;;;;1.10;1.00;;;19.20;99.90;;;;;;5072429;28;20211;-87
2022/09/15 11:47:10;;;;;;;1.00;1.00;;;19.30;99.90;;;;;;5072130;28;20211;-88
2022/09/15 11:49:42;;;;;;;1.00;0.93;;;19.30;99.90;;;;;;5071855;28;20225;-87
2022/09/15 11:52:36;;;;;;;0.88;0.88;;;19.30;99.90;;;;;;5072575;28;20205;-87
2022/09/15 11:55:16;;;;;;;0.73;0.73;;;19.30;99.90;;;;;;5072376;28;20209;-86
2022/09/15 11:57:51;;;;;;;9.63;1.40;;;19.30;99.90;;;;;;5072239;28;20209;-87
2022/09/15 12:00:21;;;;;;;1.02;1.00;;;19.20;99.90;;;;;;5073399;28;20212;-87
2022/09/15 12:03:13;;;;;;;1.23;1.10;;;19.20;99.90;;;;;;5076059;28;20224;-88
2022/09/15 12:05:48;;;;;;;1.48;1.38;;;19.10;99.90;;;;;;5076016;28;20205;-88
2022/09/15 12:08:21;;;;;;;2.22;1.52;;;19.00;99.90;;;;;;5075567;28;20224;-87
2022/09/15 12:10:53;;;;;;;1.33;1.23;;;18.90;99.90;;;;;;5075629;28;20220;-87
2022/09/15 12:13:24;;;;;;;1.27;1.17;;;18.90;99.90;;;;;;5075561;28;20212;-88
2022/09/15 12:15:54;;;;;;;1.10;1.10;;;18.80;99.90;;;;;;5075405;28;20200;-88
2022/09/15 12:18:30;;;;;;;1.30;1.20;;;18.80;99.90;;;;;;5075239;28;20254;-88
2022/09/15 12:21:15;;;;;;;1.55;1.40;;;18.80;99.90;;;;;;5075729;28;20231;-87
2022/09/15 12:23:51;;;;;;;1.25;1.25;;;18.70;99.90;;;;;;5075398;28;20221;-87
2022/09/15 12:26:22;;;;;;;2.30;2.10;;;18.70;99.90;;;;;;5075664;28;20211;-87
2022/09/15 12:28:56;;;;;;;1.30;1.20;;;18.60;99.90;;;;;;5075469;28;20258;-88
2022/09/15 12:31:34;;;;;;;4.50;1.33;;;18.50;99.90;;;;;;5075511;28;20213;-88
2022/09/15 12:34:05;;;;;;;1.75;1.17;;;18.40;99.90;;;;;;5075006;28;20201;-87
2022/09/15 12:36:42;;;;;;;2.33;1.50;;;18.30;99.90;;;;;;5075448;28;20220;-88
2022/09/15 12:39:31;;;;;;;1.38;1.27;;;18.30;99.90;;;;;;5075085;28;20221;-89
2022/09/15 12:42:17;;;;;;;2.13;1.75;;;18.30;99.90;;;;;;5074867;28;20197;-88
2022/09/15 12:44:48;;;;;;;1.33;1.23;;;18.20;99.90;;;;;;5075452;28;20209;-88
2022/09/15 12:47:39;;;;;;;1.63;1.52;;;18.20;99.90;;;;;;5074835;28;20208;-88
2022/09/15 12:50:24;;;;;;;2.05;1.30;;;18.20;99.90;;;;;;5074514;28;20212;-88
2022/09/15 12:52:57;;;;;;;1.35;1.30;;;18.20;99.90;;;;;;5075295;28;20205;-87
2022/09/15 12:55:30;;;;;;;8.23;2.00;;;18.20;99.90;;;;;;5074795;28;20209;-88
2022/09/15 12:58:01;;;;;;;1.95;1.77;;;18.30;99.90;;;;;;5074861;28;20265;-88
2022/09/15 13:00:38;;;;;;;3.13;2.45;;;18.30;99.90;;;;;;5075123;28;20201;-88
2022/09/15 13:04:04;;;;;;;2.22;1.70;;;18.30;99.90;;;;;;5074939;28;20228;-87
2022/09/15 13:06:33;;;;;;;2.00;1.90;;;18.50;99.90;;;;;;5072770;28;20216;-87
2022/09/15 13:09:26;;;;;;;2.08;1.73;;;18.60;99.90;;;;;;5074196;28;20233;-88
2022/09/15 13:11:56;;;;;;;1.60;1.50;;;18.70;99.90;;;;;;5064354;28;20209;-88
2022/09/15 13:14:32;;;;;;;1.30;1.30;;;18.80;99.90;;;;;;5074627;28;20207;-87
2022/09/15 13:17:07;;;;;;;2.10;1.92;;;18.90;99.90;;;;;;5074829;28;20208;-87
2022/09/15 13:19:45;;;;;;;1.70;1.60;;;19.00;99.90;;;;;;5074387;28;20243;-87